createdAt,value
2023-03-05T00:00:58.860Z,53.20
2023-03-05T00:01:58.843Z,52.14
2023-03-05T00:02:58.872Z,58.26
2023-03-05T00:03:58.929Z,55.51
2023-03-05T00:04:58.832Z,55.56
2023-03-05T00:05:58.858Z,55.13
2023-03-05T00:06:58.820Z,57.52
2023-03-05T00:07:58.813Z,54.38
2023-03-05T00:08:58.839Z,52.51
2023-03-05T00:09:58.799Z,54.90
2023-03-05T00:10:58.781Z,54.04
2023-03-05T00:11:58.785Z,53.97
2023-03-05T00:12:58.774Z,56.84
2023-03-05T00:14:05.800Z,53.86
2023-03-05T00:14:58.774Z,56.13
2023-03-05T00:15:58.778Z,53.50
2023-03-05T00:16:58.773Z,53.54
2023-03-05T00:17:58.744Z,53.96
2023-03-05T00:18:58.737Z,55.77
2023-03-05T00:19:59.993Z,56.55
2023-03-05T00:20:58.732Z,53.81
2023-03-05T00:21:58.709Z,52.47
2023-03-05T00:22:58.729Z,52.62
2023-03-05T00:23:58.701Z,54.24
2023-03-05T00:24:58.693Z,53.97
2023-03-05T00:25:58.686Z,52.75
2023-03-05T00:26:58.696Z,55.70
2023-03-05T00:27:58.672Z,50.67
2023-03-05T00:28:58.801Z,55.04
2023-03-05T00:29:58.681Z,54.64
2023-03-05T00:30:58.685Z,52.90
2023-03-05T00:31:58.745Z,52.22
2023-03-05T00:32:58.648Z,55.25
2023-03-05T00:33:58.644Z,55.68
2023-03-05T00:34:58.649Z,54.93
2023-03-05T00:35:58.662Z,55.72
2023-03-05T00:36:58.626Z,55.60
2023-03-05T00:37:58.619Z,55.05
2023-03-05T00:38:58.622Z,55.34
2023-03-05T00:39:58.708Z,53.86
2023-03-05T00:40:58.621Z,56.01
2023-03-05T00:41:58.592Z,53.92
2023-03-05T00:42:58.587Z,56.42
2023-03-05T00:43:58.577Z,52.33
2023-03-05T00:44:58.563Z,56.19
2023-03-05T00:45:58.550Z,54.97
2023-03-05T00:46:58.578Z,53.90
2023-03-05T00:47:58.607Z,56.88
2023-03-05T00:48:58.540Z,54.14
2023-03-05T00:49:58.538Z,55.27
2023-03-05T00:50:58.532Z,51.98
2023-03-05T00:51:58.530Z,54.28
2023-03-05T00:52:58.540Z,55.69
2023-03-05T00:53:58.518Z,54.32
2023-03-05T00:54:58.505Z,52.37
2023-03-05T00:55:58.502Z,55.71
2023-03-05T00:56:58.497Z,54.33
2023-03-05T00:57:58.505Z,56.19
2023-03-05T00:58:58.479Z,53.38
2023-03-05T00:59:58.482Z,55.40
2023-03-05T01:00:58.486Z,54.93
2023-03-05T01:01:58.495Z,51.62
2023-03-05T01:02:58.462Z,52.45
2023-03-05T01:03:58.502Z,54.74
2023-03-05T01:04:58.466Z,53.08
2023-03-05T01:05:58.435Z,55.13
2023-03-05T01:06:58.443Z,53.19
2023-03-05T01:07:58.417Z,55.96
2023-03-05T01:08:58.415Z,54.59
2023-03-05T01:09:58.457Z,56.51
2023-03-05T01:10:58.464Z,55.60
2023-03-05T01:11:58.398Z,55.10
2023-03-05T01:12:58.387Z,53.67
2023-03-05T01:13:58.376Z,53.65
2023-03-05T01:14:58.369Z,54.73
2023-03-05T01:15:58.448Z,52.23
2023-03-05T01:16:58.470Z,53.70
2023-03-05T01:17:58.360Z,53.33
2023-03-05T01:18:58.364Z,56.38
2023-03-05T01:19:58.355Z,52.88
2023-03-05T01:20:58.329Z,52.91
2023-03-05T01:21:58.345Z,53.46
2023-03-05T01:22:58.314Z,55.66
2023-03-05T01:23:58.307Z,52.15
2023-03-05T01:24:58.338Z,54.55
2023-03-05T01:25:58.315Z,55.82
2023-03-05T01:26:58.289Z,54.03
2023-03-05T01:27:58.309Z,53.19
2023-03-05T01:28:58.288Z,52.42
2023-03-05T01:29:58.280Z,54.94
2023-03-05T01:30:58.294Z,52.73
2023-03-05T01:31:58.301Z,53.13
2023-03-05T01:32:58.277Z,54.38
2023-03-05T01:33:58.249Z,56.09
2023-03-05T01:34:58.279Z,53.44
2023-03-05T01:35:58.291Z,52.89
2023-03-05T01:36:58.355Z,51.27
2023-03-05T01:37:58.234Z,54.31
2023-03-05T01:38:58.234Z,54.57
2023-03-05T01:39:58.219Z,52.58
2023-03-05T01:40:58.208Z,53.07
2023-03-05T01:41:58.224Z,53.66
2023-03-05T01:42:58.196Z,53.66
2023-03-05T01:43:58.217Z,55.66
2023-03-05T01:44:58.178Z,54.03
2023-03-05T01:45:58.195Z,53.49
2023-03-05T01:46:58.169Z,53.54
2023-03-05T01:47:58.279Z,54.67
2023-03-05T01:48:58.297Z,55.38
2023-03-05T01:49:58.146Z,52.72
2023-03-05T01:50:58.138Z,53.21
2023-03-05T01:51:58.144Z,50.57
2023-03-05T01:52:58.156Z,50.56
2023-03-05T01:53:58.184Z,51.21
2023-03-05T01:54:58.120Z,51.37
2023-03-05T01:55:58.105Z,52.21
2023-03-05T01:56:58.109Z,56.05
2023-03-05T01:57:58.109Z,52.56
2023-03-05T01:58:58.089Z,55.27
2023-03-05T01:59:58.609Z,55.63
2023-03-05T02:00:58.103Z,53.07
2023-03-05T02:01:58.076Z,55.23
2023-03-05T02:02:58.073Z,53.22
2023-03-05T02:03:58.079Z,53.28
2023-03-05T02:04:58.078Z,52.92
2023-03-05T02:05:58.056Z,54.41
2023-03-05T02:06:58.036Z,53.90
2023-03-05T02:07:58.038Z,53.77
2023-03-05T02:08:58.022Z,52.83
2023-03-05T02:09:58.015Z,51.36
2023-03-05T02:10:58.021Z,52.31
2023-03-05T02:11:58.001Z,54.75
2023-03-05T02:12:58.018Z,55.14
2023-03-05T02:13:57.982Z,53.29
2023-03-05T02:14:58.012Z,53.31
2023-03-05T02:15:57.977Z,51.94
2023-03-05T02:16:58.080Z,52.36
2023-03-05T02:17:57.962Z,50.04
2023-03-05T02:18:57.961Z,52.56
2023-03-05T02:19:57.975Z,53.22
2023-03-05T02:20:58.021Z,54.07
2023-03-05T02:21:57.943Z,51.71
2023-03-05T02:22:57.933Z,51.06
2023-03-05T02:23:57.931Z,53.85
2023-03-05T02:24:57.918Z,56.58
2023-03-05T02:25:57.940Z,54.78
2023-03-05T02:26:57.929Z,52.39
2023-03-05T02:27:57.903Z,53.11
2023-03-05T02:28:57.907Z,53.04
2023-03-05T02:29:57.896Z,50.58
2023-03-05T02:30:57.883Z,51.70
2023-03-05T02:31:58.120Z,51.44
2023-03-05T02:32:57.890Z,51.62
2023-03-05T02:33:57.862Z,54.13
2023-03-05T02:34:57.873Z,53.89
2023-03-05T02:35:57.880Z,50.17
2023-03-05T02:36:57.852Z,51.95
2023-03-05T02:37:57.833Z,51.91
2023-03-05T02:38:57.864Z,52.86
2023-03-05T02:39:57.853Z,55.22
2023-03-05T02:40:57.827Z,52.01
2023-03-05T02:41:57.821Z,51.23
2023-03-05T02:42:57.813Z,51.34
2023-03-05T02:43:57.805Z,51.13
2023-03-05T02:44:57.799Z,54.43
2023-03-05T02:45:58.046Z,50.37
2023-03-05T02:46:57.780Z,53.53
2023-03-05T02:47:57.778Z,53.85
2023-03-05T02:48:57.793Z,51.59
2023-03-05T02:49:57.771Z,51.75
2023-03-05T02:50:57.789Z,51.63
2023-03-05T02:51:57.857Z,52.41
2023-03-05T02:52:57.748Z,53.59
2023-03-05T02:53:57.755Z,53.43
2023-03-05T02:54:57.730Z,54.25
2023-03-05T02:55:57.748Z,50.55
2023-03-05T02:56:57.745Z,55.31
2023-03-05T02:57:57.703Z,56.39
2023-03-05T02:58:57.701Z,54.52
2023-03-05T02:59:57.747Z,53.88
2023-03-05T03:00:57.700Z,53.89
2023-03-05T03:01:57.680Z,51.02
2023-03-05T03:02:57.757Z,52.10
2023-03-05T03:03:57.688Z,49.48
2023-03-05T03:04:57.662Z,51.48
2023-03-05T03:05:57.656Z,53.19
2023-03-05T03:06:57.654Z,51.07
2023-03-05T03:07:57.643Z,53.66
2023-03-05T03:08:57.655Z,53.19
2023-03-05T03:09:57.635Z,52.83
2023-03-05T03:10:57.628Z,53.52
2023-03-05T03:11:57.624Z,54.87
2023-03-05T03:12:57.621Z,53.21
2023-03-05T03:13:57.613Z,52.30
2023-03-05T03:14:57.625Z,53.02
2023-03-05T03:15:57.601Z,52.27
2023-03-05T03:16:57.649Z,50.82
2023-03-05T03:17:57.594Z,51.47
2023-03-05T03:18:57.597Z,52.11
2023-03-05T03:19:57.593Z,53.20
2023-03-05T03:20:57.596Z,55.04
2023-03-05T03:21:57.584Z,53.53
2023-03-05T03:22:57.560Z,50.86
2023-03-05T03:23:57.553Z,51.92
2023-03-05T03:24:57.569Z,54.55
2023-03-05T03:25:57.539Z,51.61
2023-03-05T03:26:57.553Z,52.80
2023-03-05T03:27:57.532Z,51.96
2023-03-05T03:28:57.521Z,52.20
2023-03-05T03:29:57.520Z,53.28
2023-03-05T03:30:57.632Z,50.52
2023-03-05T03:31:57.564Z,52.14
2023-03-05T03:32:57.505Z,52.24
2023-03-05T03:33:57.499Z,52.81
2023-03-05T03:34:57.505Z,54.69
2023-03-05T03:35:57.523Z,51.97
2023-03-05T03:36:57.512Z,53.10
2023-03-05T03:37:57.479Z,54.83
2023-03-05T03:38:57.486Z,54.23
2023-03-05T03:39:57.465Z,56.14
2023-03-05T03:40:57.458Z,52.97
2023-03-05T03:41:57.461Z,53.29
2023-03-05T03:42:57.485Z,51.40
2023-03-05T03:43:57.456Z,53.45
2023-03-05T03:44:57.434Z,52.10
2023-03-05T03:45:57.457Z,50.49
2023-03-05T03:46:57.442Z,51.67
2023-03-05T03:47:57.419Z,53.82
2023-03-05T03:48:57.448Z,51.57
2023-03-05T03:49:57.405Z,52.72
2023-03-05T03:50:57.397Z,52.48
2023-03-05T03:51:57.511Z,52.42
2023-03-05T03:52:57.390Z,55.30
2023-03-05T03:53:57.401Z,54.19
2023-03-05T03:54:57.379Z,54.46
2023-03-05T03:55:57.367Z,54.31
2023-03-05T03:56:57.426Z,55.41
2023-03-05T03:57:57.393Z,55.00
2023-03-05T03:58:57.382Z,51.61
2023-03-05T03:59:57.379Z,53.49
2023-03-05T04:00:57.343Z,51.56
2023-03-05T04:01:57.327Z,51.48
2023-03-05T04:02:57.339Z,52.49
2023-03-05T04:03:57.363Z,52.67
2023-03-05T04:04:57.315Z,51.77
2023-03-05T04:05:57.309Z,54.56
2023-03-05T04:06:57.307Z,56.59
2023-03-05T04:07:57.298Z,53.87
2023-03-05T04:08:57.321Z,52.53
2023-03-05T04:09:57.286Z,54.08
2023-03-05T04:10:57.284Z,53.70
2023-03-05T04:11:57.277Z,53.21
2023-03-05T04:12:57.266Z,52.78
2023-03-05T04:13:57.275Z,55.45
2023-03-05T04:14:57.263Z,52.94
2023-03-05T04:15:57.293Z,49.76
2023-03-05T04:16:57.244Z,52.83
2023-03-05T04:17:57.243Z,54.61
2023-03-05T04:18:57.238Z,54.28
2023-03-05T04:19:57.225Z,55.70
2023-03-05T04:20:57.236Z,53.23
2023-03-05T04:21:57.221Z,52.82
2023-03-05T04:22:57.209Z,54.70
2023-03-05T04:23:57.196Z,51.23
2023-03-05T04:24:57.213Z,53.18
2023-03-05T04:25:57.199Z,57.09
2023-03-05T04:26:57.178Z,54.59
2023-03-05T04:27:57.174Z,55.12
2023-03-05T04:28:57.187Z,52.76
2023-03-05T04:29:57.154Z,54.92
2023-03-05T04:30:57.176Z,54.94
2023-03-05T04:31:57.179Z,58.26
2023-03-05T04:32:57.149Z,56.02
2023-03-05T04:33:57.139Z,51.02
2023-03-05T04:34:57.157Z,52.39
2023-03-05T04:35:57.199Z,50.63
2023-03-05T04:36:57.130Z,53.12
2023-03-05T04:37:57.113Z,55.67
2023-03-05T04:38:57.116Z,52.23
2023-03-05T04:39:57.098Z,51.79
2023-03-05T04:40:57.138Z,52.58
2023-03-05T04:41:57.092Z,50.97
2023-03-05T04:42:57.083Z,52.18
2023-03-05T04:43:57.068Z,51.61
2023-03-05T04:44:57.063Z,53.81
2023-03-05T04:45:57.063Z,55.66
2023-03-05T04:46:57.077Z,53.95
2023-03-05T04:47:57.040Z,51.70
2023-03-05T04:48:57.039Z,54.56
2023-03-05T04:49:57.031Z,56.52
2023-03-05T04:50:57.028Z,49.94
2023-03-05T04:51:57.041Z,53.36
2023-03-05T04:52:57.023Z,51.43
2023-03-05T04:53:57.005Z,52.24
2023-03-05T04:54:57.003Z,54.88
2023-03-05T04:55:56.997Z,54.15
2023-03-05T04:56:56.991Z,51.06
2023-03-05T04:57:57.000Z,54.14
2023-03-05T04:58:56.985Z,54.66
2023-03-05T04:59:56.989Z,56.18
2023-03-05T05:00:56.967Z,53.25
2023-03-05T05:01:56.972Z,50.90
2023-03-05T05:02:57.043Z,54.99
2023-03-05T05:03:56.938Z,52.39
2023-03-05T05:04:56.946Z,55.01
2023-03-05T05:05:56.947Z,55.21
2023-03-05T05:06:56.923Z,56.40
2023-03-05T05:07:56.927Z,54.46
2023-03-05T05:08:56.911Z,51.80
2023-03-05T05:09:56.926Z,51.17
2023-03-05T05:10:56.901Z,52.95
2023-03-05T05:11:56.889Z,54.77
2023-03-05T05:12:56.889Z,55.55
2023-03-05T05:13:56.878Z,55.24
2023-03-05T05:14:56.866Z,57.12
2023-03-05T05:15:56.897Z,51.71
2023-03-05T05:16:56.862Z,53.07
2023-03-05T05:17:56.855Z,55.53
2023-03-05T05:18:56.842Z,53.81
2023-03-05T05:19:56.846Z,54.03
2023-03-05T05:20:56.851Z,51.47
2023-03-05T05:21:56.825Z,51.63
2023-03-05T05:22:56.836Z,54.53
2023-03-05T05:23:56.809Z,53.83
2023-03-05T05:24:56.803Z,53.53
2023-03-05T05:25:56.816Z,52.98
2023-03-05T05:26:56.787Z,54.48
2023-03-05T05:27:56.784Z,55.07
2023-03-05T05:28:56.777Z,52.83
2023-03-05T05:29:56.764Z,54.23
2023-03-05T05:30:56.772Z,53.79
2023-03-05T05:31:56.768Z,51.55
2023-03-05T05:32:56.748Z,51.86
2023-03-05T05:33:56.741Z,55.25
2023-03-05T05:34:56.745Z,57.15
2023-03-05T05:35:56.772Z,55.96
2023-03-05T05:36:56.741Z,56.10
2023-03-05T05:37:56.740Z,53.95
2023-03-05T05:38:56.721Z,57.01
2023-03-05T05:39:56.718Z,53.23
2023-03-05T05:40:56.709Z,55.02
2023-03-05T05:41:56.710Z,51.78
2023-03-05T05:42:56.694Z,56.59
2023-03-05T05:43:56.701Z,56.66
2023-03-05T05:44:56.676Z,51.78
2023-03-05T05:45:56.783Z,55.21
2023-03-05T05:46:56.672Z,55.24
2023-03-05T05:47:56.660Z,53.65
2023-03-05T05:48:56.685Z,52.95
2023-03-05T05:49:56.654Z,55.18
2023-03-05T05:50:56.649Z,53.52
2023-03-05T05:51:56.657Z,55.06
2023-03-05T05:52:56.633Z,58.33
2023-03-05T05:53:56.626Z,53.61
2023-03-05T05:54:56.622Z,54.13
2023-03-05T05:55:56.618Z,53.55
2023-03-05T05:56:56.629Z,51.99
2023-03-05T05:57:56.608Z,56.09
2023-03-05T05:58:56.603Z,56.70
2023-03-05T05:59:56.599Z,54.95
2023-03-05T06:00:56.593Z,54.29
2023-03-05T06:01:56.642Z,52.99
2023-03-05T06:02:56.614Z,53.82
2023-03-05T06:03:56.564Z,54.85
2023-03-05T06:04:58.189Z,52.95
2023-03-05T06:05:56.570Z,52.88
2023-03-05T06:06:56.555Z,54.06
2023-03-05T06:07:56.544Z,53.95
2023-03-05T06:08:56.537Z,55.69
2023-03-05T06:09:56.529Z,54.06
2023-03-05T06:10:56.545Z,51.73
2023-03-05T06:11:56.521Z,57.60
2023-03-05T06:12:56.514Z,51.33
2023-03-05T06:13:56.558Z,55.89
2023-03-05T06:15:03.521Z,55.42
2023-03-05T06:15:56.506Z,57.30
2023-03-05T06:16:56.570Z,55.82
2023-03-05T06:17:56.481Z,56.14
2023-03-05T06:18:56.498Z,56.01
2023-03-05T06:19:56.474Z,53.43
2023-03-05T06:20:56.467Z,57.45
2023-03-05T06:21:56.457Z,55.37
2023-03-05T06:22:56.457Z,56.42
2023-03-05T06:23:56.445Z,56.37
2023-03-05T06:24:56.477Z,57.02
2023-03-05T06:25:56.433Z,55.74
2023-03-05T06:26:56.439Z,55.39
2023-03-05T06:27:56.422Z,55.97
2023-03-05T06:28:56.420Z,56.04
2023-03-05T06:29:56.405Z,54.96
2023-03-05T06:30:56.450Z,54.04
2023-03-05T06:31:56.401Z,55.64
2023-03-05T06:32:56.382Z,53.71
2023-03-05T06:33:56.404Z,53.58
2023-03-05T06:34:56.388Z,54.64
2023-03-05T06:35:56.394Z,54.18
2023-03-05T06:36:56.369Z,54.95
2023-03-05T06:37:56.353Z,56.17
2023-03-05T06:38:56.371Z,56.12
2023-03-05T06:39:56.357Z,58.25
2023-03-05T06:40:56.341Z,56.29
2023-03-05T06:41:56.347Z,54.43
2023-03-05T06:42:56.327Z,56.76
2023-03-05T06:43:56.342Z,55.95
2023-03-05T06:44:56.311Z,57.14
2023-03-05T06:45:56.345Z,54.54
2023-03-05T06:46:56.301Z,55.55
2023-03-05T06:47:56.292Z,55.18
2023-03-05T06:48:56.294Z,52.49
2023-03-05T06:49:56.303Z,54.34
2023-03-05T06:50:56.275Z,55.45
2023-03-05T06:51:56.284Z,55.66
2023-03-05T06:52:56.272Z,57.41
2023-03-05T06:53:56.257Z,56.95
2023-03-05T06:54:56.249Z,56.30
2023-03-05T06:55:56.239Z,54.97
2023-03-05T06:56:56.258Z,56.11
2023-03-05T06:57:56.230Z,55.33
2023-03-05T06:58:56.223Z,55.04
2023-03-05T06:59:56.226Z,57.49
2023-03-05T07:00:56.295Z,57.62
2023-03-05T07:01:56.204Z,57.49
2023-03-05T07:02:56.216Z,58.69
2023-03-05T07:03:56.193Z,58.08
2023-03-05T07:04:56.200Z,54.83
2023-03-05T07:05:56.179Z,55.17
2023-03-05T07:06:56.184Z,54.51
2023-03-05T07:07:56.191Z,57.95
2023-03-05T07:08:56.161Z,55.13
2023-03-05T07:09:56.152Z,57.47
2023-03-05T07:10:56.142Z,56.24
2023-03-05T07:11:56.142Z,56.27
2023-03-05T07:12:56.185Z,57.06
2023-03-05T07:13:56.131Z,57.60
2023-03-05T07:14:56.125Z,54.51
2023-03-05T07:15:56.204Z,56.41
2023-03-05T07:16:56.120Z,56.56
2023-03-05T07:17:56.130Z,57.83
2023-03-05T07:18:56.113Z,56.26
2023-03-05T07:19:56.100Z,56.39
2023-03-05T07:20:56.088Z,57.85
2023-03-05T07:21:56.081Z,58.48
2023-03-05T07:22:56.106Z,56.38
2023-03-05T07:23:56.090Z,53.88
2023-03-05T07:24:56.084Z,54.61
2023-03-05T07:25:56.058Z,55.32
2023-03-05T07:26:56.056Z,56.63
2023-03-05T07:27:56.066Z,56.02
2023-03-05T07:28:56.043Z,57.76
2023-03-05T07:29:56.051Z,56.64
2023-03-05T07:30:56.118Z,56.60
2023-03-05T07:31:56.028Z,55.48
2023-03-05T07:32:56.027Z,55.94
2023-03-05T07:33:56.033Z,60.74
2023-03-05T07:34:56.009Z,57.46
2023-03-05T07:35:56.051Z,57.52
2023-03-05T07:36:55.998Z,56.25
2023-03-05T07:37:55.993Z,54.83
2023-03-05T07:38:56.012Z,56.54
2023-03-05T07:39:55.971Z,57.23
2023-03-05T07:40:55.993Z,56.64
2023-03-05T07:41:55.960Z,58.19
2023-03-05T07:42:55.981Z,55.79
2023-03-05T07:43:55.950Z,56.94
2023-03-05T07:44:55.965Z,58.99
2023-03-05T07:45:55.962Z,58.25
2023-03-05T07:46:55.944Z,58.29
2023-03-05T07:47:55.928Z,57.32
2023-03-05T07:48:55.937Z,58.32
2023-03-05T07:49:55.930Z,56.81
2023-03-05T07:50:55.891Z,58.20
2023-03-05T07:51:55.894Z,56.31
2023-03-05T07:52:55.915Z,55.88
2023-03-05T07:53:55.886Z,55.30
2023-03-05T07:54:55.879Z,55.75
2023-03-05T07:55:55.880Z,56.40
2023-03-05T07:56:55.894Z,56.58
2023-03-05T07:57:55.852Z,56.06
2023-03-05T07:58:55.857Z,55.52
2023-03-05T07:59:55.859Z,55.90
2023-03-05T08:00:55.839Z,55.45
2023-03-05T08:01:55.843Z,55.55
2023-03-05T08:02:55.824Z,58.03
2023-03-05T08:03:55.833Z,54.16
2023-03-05T08:04:55.813Z,55.66
2023-03-05T08:05:55.805Z,54.89
2023-03-05T08:06:55.800Z,55.46
2023-03-05T08:07:55.800Z,54.95
2023-03-05T08:08:55.832Z,56.38
2023-03-05T08:09:55.808Z,55.24
2023-03-05T08:10:55.797Z,57.56
2023-03-05T08:11:55.767Z,58.78
2023-03-05T08:12:55.767Z,55.58
2023-03-05T08:13:55.757Z,54.83
2023-03-05T08:14:55.771Z,56.59
2023-03-05T08:15:55.790Z,55.04
2023-03-05T08:16:55.749Z,53.86
2023-03-05T08:17:55.741Z,54.72
2023-03-05T08:18:55.741Z,55.38
2023-03-05T08:19:55.754Z,55.77
2023-03-05T08:20:55.740Z,56.49
2023-03-05T08:21:56.497Z,55.33
2023-03-05T08:22:55.704Z,55.63
2023-03-05T08:23:55.696Z,55.76
2023-03-05T08:24:55.707Z,55.93
2023-03-05T08:25:55.692Z,55.22
2023-03-05T08:26:55.693Z,55.47
2023-03-05T08:27:55.691Z,57.16
2023-03-05T08:28:55.664Z,55.91
2023-03-05T08:29:55.654Z,54.97
2023-03-05T08:30:55.679Z,55.25
2023-03-05T08:31:55.668Z,56.63
2023-03-05T08:32:55.641Z,54.74
2023-03-05T08:33:55.620Z,56.41
2023-03-05T08:34:55.621Z,56.79
2023-03-05T08:35:55.730Z,57.30
2023-03-05T08:36:55.608Z,56.88
2023-03-05T08:37:55.617Z,57.23
2023-03-05T08:38:55.619Z,57.47
2023-03-05T08:39:55.588Z,57.62
2023-03-05T08:40:55.583Z,56.16
2023-03-05T08:41:55.638Z,57.27
2023-03-05T08:42:55.589Z,56.17
2023-03-05T08:43:55.564Z,59.09
2023-03-05T08:44:55.553Z,59.27
2023-03-05T08:45:55.568Z,55.44
2023-03-05T08:46:55.571Z,57.08
2023-03-05T08:47:55.534Z,56.53
2023-03-05T08:48:55.556Z,57.39
2023-03-05T08:49:55.575Z,57.87
2023-03-05T08:50:55.511Z,55.89
2023-03-05T08:51:55.509Z,57.61
2023-03-05T08:52:55.511Z,59.32
2023-03-05T08:53:55.492Z,58.56
2023-03-05T08:54:55.516Z,58.80
2023-03-05T08:55:55.504Z,59.79
2023-03-05T08:56:55.484Z,57.22
2023-03-05T08:57:55.473Z,55.79
2023-03-05T08:58:55.461Z,57.65
2023-03-05T08:59:55.468Z,58.21
2023-03-05T09:00:55.464Z,59.21
2023-03-05T09:01:55.501Z,60.02
2023-03-05T09:02:55.531Z,58.01
2023-03-05T09:03:55.448Z,58.92
2023-03-05T09:04:55.445Z,58.71
2023-03-05T09:05:55.412Z,58.63
2023-03-05T09:06:55.417Z,59.38
2023-03-05T09:07:55.399Z,59.94
2023-03-05T09:08:55.400Z,59.86
2023-03-05T09:09:55.387Z,61.84
2023-03-05T09:10:55.402Z,60.50
2023-03-05T09:11:55.376Z,60.66
2023-03-05T09:12:55.386Z,59.46
2023-03-05T09:13:55.363Z,59.18
2023-03-05T09:14:55.378Z,58.91
2023-03-05T09:15:55.384Z,59.55
2023-03-05T09:16:55.379Z,58.24
2023-03-05T09:17:55.347Z,57.19
2023-03-05T09:18:55.341Z,59.30
2023-03-05T09:19:55.331Z,59.92
2023-03-05T09:20:55.346Z,59.88
2023-03-05T09:21:56.964Z,57.17
2023-03-05T09:22:55.327Z,58.40
2023-03-05T09:23:55.310Z,57.63
2023-03-05T09:24:55.311Z,58.33
2023-03-05T09:25:55.316Z,57.82
2023-03-05T09:26:55.298Z,59.41
2023-03-05T09:27:55.288Z,57.72
2023-03-05T09:28:55.276Z,57.22
2023-03-05T09:29:55.294Z,59.11
2023-03-05T09:30:55.292Z,57.74
2023-03-05T09:31:55.332Z,57.35
2023-03-05T09:32:55.274Z,57.87
2023-03-05T09:33:55.264Z,58.44
2023-03-05T09:34:55.259Z,58.16
2023-03-05T09:35:55.291Z,57.01
2023-03-05T09:36:55.229Z,56.76
2023-03-05T09:37:55.218Z,59.13
2023-03-05T09:38:55.221Z,57.86
2023-03-05T09:39:55.223Z,58.64
2023-03-05T09:40:55.225Z,56.20
2023-03-05T09:41:55.235Z,58.86
2023-03-05T09:42:55.201Z,56.11
2023-03-05T09:43:55.191Z,59.23
2023-03-05T09:44:55.235Z,56.84
2023-03-05T09:45:55.221Z,55.94
2023-03-05T09:46:55.182Z,55.88
2023-03-05T09:47:55.161Z,57.36
2023-03-05T09:48:55.166Z,56.26
2023-03-05T09:49:55.159Z,57.68
2023-03-05T09:50:55.184Z,58.30
2023-03-05T09:51:55.150Z,57.29
2023-03-05T09:52:55.132Z,57.23
2023-03-05T09:53:55.143Z,58.32
2023-03-05T09:54:55.127Z,57.76
2023-03-05T09:55:55.136Z,58.28
2023-03-05T09:56:55.115Z,57.68
2023-03-05T09:57:55.145Z,57.04
2023-03-05T09:58:56.226Z,56.80
2023-03-05T09:59:55.114Z,56.35
2023-03-05T10:00:55.084Z,57.30
2023-03-05T10:01:55.091Z,57.37
2023-03-05T10:02:55.092Z,56.33
2023-03-05T10:03:55.099Z,55.78
2023-03-05T10:04:55.078Z,56.94
2023-03-05T10:05:55.065Z,57.48
2023-03-05T10:06:55.061Z,58.29
2023-03-05T10:07:55.063Z,58.99
2023-03-05T10:08:55.046Z,57.75
2023-03-05T10:09:55.047Z,57.59
2023-03-05T10:10:55.030Z,58.58
2023-03-05T10:11:55.061Z,58.08
2023-03-05T10:12:55.013Z,59.35
2023-03-05T10:13:55.027Z,59.89
2023-03-05T10:14:55.014Z,57.75
2023-03-05T10:15:54.996Z,56.52
2023-03-05T10:16:55.042Z,57.34
2023-03-05T10:17:54.999Z,57.79
2023-03-05T10:18:54.980Z,58.94
2023-03-05T10:19:54.974Z,59.68
2023-03-05T10:20:54.959Z,59.17
2023-03-05T10:21:54.962Z,58.92
2023-03-05T10:22:54.945Z,57.39
2023-03-05T10:23:54.937Z,58.10
2023-03-05T10:24:54.959Z,58.71
2023-03-05T10:25:54.967Z,58.38
2023-03-05T10:26:54.983Z,56.61
2023-03-05T10:27:54.912Z,57.34
2023-03-05T10:28:54.907Z,56.68
2023-03-05T10:29:54.917Z,56.15
2023-03-05T10:30:54.926Z,56.78
2023-03-05T10:31:54.917Z,57.62
2023-03-05T10:32:54.882Z,56.31
2023-03-05T10:33:54.894Z,57.44
2023-03-05T10:34:54.879Z,55.83
2023-03-05T10:35:54.971Z,56.72
2023-03-05T10:36:56.688Z,57.04
2023-03-05T10:37:54.842Z,58.73
2023-03-05T10:38:54.849Z,58.50
2023-03-05T10:39:54.842Z,56.86
2023-03-05T10:40:54.829Z,57.84
2023-03-05T10:41:54.835Z,58.46
2023-03-05T10:42:54.835Z,59.75
2023-03-05T10:43:54.861Z,58.60
2023-03-05T10:44:54.836Z,59.00
2023-03-05T10:45:54.836Z,57.92
2023-03-05T10:46:55.995Z,59.11
2023-03-05T10:47:54.789Z,57.51
2023-03-05T10:48:54.804Z,58.46
2023-03-05T10:49:54.817Z,59.47
2023-03-05T10:50:54.783Z,58.53
2023-03-05T10:51:54.753Z,58.57
2023-03-05T10:52:54.758Z,58.54
2023-03-05T10:53:54.747Z,58.71
2023-03-05T10:54:54.752Z,58.37
2023-03-05T10:55:54.799Z,59.55
2023-03-05T10:56:54.739Z,61.36
2023-03-05T10:57:54.730Z,59.23
2023-03-05T10:58:54.715Z,57.83
2023-03-05T10:59:54.724Z,57.73
2023-03-05T11:00:54.782Z,57.97
2023-03-05T11:01:54.753Z,58.78
2023-03-05T11:02:54.805Z,58.47
2023-03-05T11:03:54.708Z,57.44
2023-03-05T11:04:54.752Z,57.02
2023-03-05T11:05:54.678Z,58.49
2023-03-05T11:06:54.668Z,59.17
2023-03-05T11:07:54.659Z,58.46
2023-03-05T11:08:54.660Z,58.84
2023-03-05T11:09:54.648Z,57.71
2023-03-05T11:10:54.657Z,57.32
2023-03-05T11:11:54.653Z,58.03
2023-03-05T11:12:54.653Z,58.38
2023-03-05T11:13:54.624Z,59.33
2023-03-05T11:14:54.620Z,59.10
2023-03-05T11:15:54.636Z,57.47
2023-03-05T11:16:54.619Z,60.02
2023-03-05T11:17:54.596Z,59.36
2023-03-05T11:18:54.599Z,60.09
2023-03-05T11:19:54.581Z,59.96
2023-03-05T11:20:54.593Z,59.79
2023-03-05T11:21:54.604Z,58.66
2023-03-05T11:22:54.572Z,60.16
2023-03-05T11:23:54.560Z,59.35
2023-03-05T11:24:54.557Z,59.63
2023-03-05T11:25:54.548Z,58.05
2023-03-05T11:26:54.541Z,58.85
2023-03-05T11:27:54.926Z,58.52
2023-03-05T11:28:54.537Z,60.49
2023-03-05T11:29:54.525Z,60.71
2023-03-05T11:30:54.556Z,59.21
2023-03-05T11:31:54.529Z,59.44
2023-03-05T11:32:54.513Z,56.94
2023-03-05T11:33:54.520Z,57.48
2023-03-05T11:34:54.497Z,62.51
2023-03-05T11:35:54.495Z,59.78
2023-03-05T11:36:54.499Z,58.45
2023-03-05T11:37:54.524Z,57.33
2023-03-05T11:38:54.488Z,59.10
2023-03-05T11:39:54.504Z,57.86
2023-03-05T11:40:54.467Z,57.33
2023-03-05T11:41:54.498Z,61.03
2023-03-05T11:42:54.473Z,59.15
2023-03-05T11:43:54.452Z,58.61
2023-03-05T11:44:54.459Z,58.01
2023-03-05T11:45:54.608Z,57.66
2023-03-05T11:46:54.428Z,59.20
2023-03-05T11:47:54.426Z,59.42
2023-03-05T11:48:54.459Z,57.97
2023-03-05T11:49:54.417Z,58.54
2023-03-05T11:50:54.414Z,58.23
2023-03-05T11:51:54.468Z,57.50
2023-03-05T11:52:54.389Z,58.15
2023-03-05T11:53:54.391Z,59.42
2023-03-05T11:54:54.389Z,58.81
2023-03-05T11:55:54.381Z,57.95
2023-03-05T11:56:54.375Z,59.76
2023-03-05T11:57:54.432Z,57.51
2023-03-05T11:58:54.381Z,59.45
2023-03-05T11:59:54.353Z,60.20
2023-03-05T12:00:54.384Z,58.66
2023-03-05T12:01:54.369Z,60.22
2023-03-05T12:02:54.405Z,59.45
2023-03-05T12:03:54.361Z,58.93
2023-03-05T12:04:54.327Z,59.08
2023-03-05T12:05:54.317Z,58.64
2023-03-05T12:06:54.348Z,59.66
2023-03-05T12:07:54.300Z,59.28
2023-03-05T12:08:54.314Z,58.25
2023-03-05T12:09:54.357Z,57.47
2023-03-05T12:10:54.291Z,57.85
2023-03-05T12:11:54.308Z,57.51
2023-03-05T12:12:54.289Z,57.65
2023-03-05T12:13:54.309Z,57.96
2023-03-05T12:14:54.274Z,57.94
2023-03-05T12:15:54.273Z,60.58
2023-03-05T12:16:54.253Z,59.75
2023-03-05T12:17:54.249Z,56.70
2023-03-05T12:18:54.259Z,59.83
2023-03-05T12:19:54.257Z,59.17
2023-03-05T12:20:54.293Z,59.35
2023-03-05T12:21:54.232Z,58.37
2023-03-05T12:22:54.234Z,60.52
2023-03-05T12:23:54.208Z,60.55
2023-03-05T12:24:54.224Z,60.15
2023-03-05T12:25:54.200Z,59.76
2023-03-05T12:26:54.238Z,59.97
2023-03-05T12:27:54.202Z,60.85
2023-03-05T12:28:54.178Z,60.77
2023-03-05T12:29:54.174Z,61.52
2023-03-05T12:30:54.188Z,61.97
2023-03-05T12:31:54.171Z,61.09
2023-03-05T12:32:54.189Z,61.51
2023-03-05T12:33:54.149Z,62.43
2023-03-05T12:34:54.143Z,60.63
2023-03-05T12:35:54.272Z,60.23
2023-03-05T12:36:54.173Z,60.60
2023-03-05T12:37:54.120Z,61.77
2023-03-05T12:38:54.129Z,61.54
2023-03-05T12:39:54.115Z,60.53
2023-03-05T12:40:54.110Z,60.76
2023-03-05T12:41:54.096Z,59.44
2023-03-05T12:42:54.141Z,61.85
2023-03-05T12:43:54.093Z,61.93
2023-03-05T12:44:54.078Z,61.09
2023-03-05T12:45:54.082Z,60.30
2023-03-05T12:46:54.088Z,62.10
2023-03-05T12:47:54.089Z,62.45
2023-03-05T12:48:54.087Z,62.34
2023-03-05T12:49:54.064Z,60.98
2023-03-05T12:50:54.073Z,58.83
2023-03-05T12:51:54.037Z,59.95
2023-03-05T12:52:54.063Z,60.35